sensor_id;sensor_type;location;lat;lon;timestamp;P1;durP1;ratioP1;P2;durP2;ratioP2
5876;SDS011;2964;42.144;24.730;2023-06-01T00:00:05;14.53;;;11.07;;
5876;SDS011;2964;42.144;24.730;2023-06-01T00:02:34;12.97;;;11.70;;
5876;SDS011;2964;42.144;24.730;2023-06-01T00:05:01;12.57;;;11.30;;
5876;SDS011;2964;42.144;24.730;2023-06-01T00:07:28;13.57;;;12.20;;
5876;SDS011;2964;42.144;24.730;2023-06-01T00:09:59;12.57;;;11.23;;
5876;SDS011;2964;42.144;24.730;2023-06-01T00:12:26;12.23;;;11.27;;
5876;SDS011;2964;42.144;24.730;2023-06-01T00:14:53;12.93;;;11.57;;
5876;SDS011;2964;42.144;24.730;2023-06-01T00:17:20;11.93;;;10.93;;
5876;SDS011;2964;42.144;24.730;2023-06-01T00:19:47;12.67;;;11.07;;
5876;SDS011;2964;42.144;24.730;2023-06-01T00:22:14;12.30;;;11.23;;
5876;SDS011;2964;42.144;24.730;2023-06-01T00:24:41;12.77;;;11.53;;
5876;SDS011;2964;42.144;24.730;2023-06-01T00:27:09;12.30;;;11.10;;
5876;SDS011;2964;42.144;24.730;2023-06-01T00:29:36;12.37;;;11.20;;
5876;SDS011;2964;42.144;24.730;2023-06-01T00:32:03;11.57;;;10.67;;
5876;SDS011;2964;42.144;24.730;2023-06-01T00:34:30;11.33;;;10.43;;
5876;SDS011;2964;42.144;24.730;2023-06-01T00:36:57;12.53;;;11.50;;
5876;SDS011;2964;42.144;24.730;2023-06-01T00:39:23;13.23;;;11.53;;
5876;SDS011;2964;42.144;24.730;2023-06-01T00:41:50;17.20;;;11.27;;
5876;SDS011;2964;42.144;24.730;2023-06-01T00:44:18;12.40;;;11.40;;
5876;SDS011;2964;42.144;24.730;2023-06-01T00:46:45;12.47;;;11.20;;
5876;SDS011;2964;42.144;24.730;2023-06-01T00:49:11;13.40;;;12.00;;
5876;SDS011;2964;42.144;24.730;2023-06-01T00:51:38;11.93;;;10.67;;
5876;SDS011;2964;42.144;24.730;2023-06-01T00:54:05;13.47;;;12.07;;
5876;SDS011;2964;42.144;24.730;2023-06-01T00:56:33;14.67;;;12.37;;
5876;SDS011;2964;42.144;24.730;2023-06-01T00:59:01;13.67;;;12.27;;
5876;SDS011;2964;42.144;24.730;2023-06-01T01:01:29;21.00;;;11.10;;
5876;SDS011;2964;42.144;24.730;2023-06-01T01:03:56;13.23;;;12.03;;
5876;SDS011;2964;42.144;24.730;2023-06-01T01:06:30;13.67;;;12.27;;
5876;SDS011;2964;42.144;24.730;2023-06-01T01:09:18;14.40;;;12.97;;
5876;SDS011;2964;42.144;24.730;2023-06-01T01:11:51;15.17;;;11.40;;
5876;SDS011;2964;42.144;24.730;2023-06-01T01:14:24;13.57;;;12.30;;
5876;SDS011;2964;42.144;24.730;2023-06-01T01:16:57;11.10;;;10.20;;
5876;SDS011;2964;42.144;24.730;2023-06-01T01:19:29;13.97;;;10.43;;
5876;SDS011;2964;42.144;24.730;2023-06-01T01:22:20;10.87;;;10.07;;
5876;SDS011;2964;42.144;24.730;2023-06-01T01:24:57;12.00;;;11.00;;
5876;SDS011;2964;42.144;24.730;2023-06-01T01:27:39;10.23;;;9.43;;
5876;SDS011;2964;42.144;24.730;2023-06-01T01:30:21;10.80;;;9.70;;
5876;SDS011;2964;42.144;24.730;2023-06-01T01:32:52;10.37;;;9.63;;
5876;SDS011;2964;42.144;24.730;2023-06-01T01:35:21;10.87;;;9.97;;
5876;SDS011;2964;42.144;24.730;2023-06-01T01:37:49;16.67;;;11.37;;
5876;SDS011;2964;42.144;24.730;2023-06-01T01:40:17;11.17;;;10.13;;
5876;SDS011;2964;42.144;24.730;2023-06-01T01:42:44;14.47;;;10.17;;
5876;SDS011;2964;42.144;24.730;2023-06-01T01:45:11;10.57;;;9.57;;
5876;SDS011;2964;42.144;24.730;2023-06-01T01:47:40;10.90;;;9.93;;
5876;SDS011;2964;42.144;24.730;2023-06-01T01:50:12;13.77;;;9.50;;
5876;SDS011;2964;42.144;24.730;2023-06-01T01:52:42;14.37;;;10.60;;
5876;SDS011;2964;42.144;24.730;2023-06-01T01:55:11;11.33;;;10.33;;
5876;SDS011;2964;42.144;24.730;2023-06-01T01:57:40;11.63;;;10.10;;
5876;SDS011;2964;42.144;24.730;2023-06-01T02:00:08;11.17;;;9.97;;
5876;SDS011;2964;42.144;24.730;2023-06-01T02:02:36;12.40;;;10.03;;
5876;SDS011;2964;42.144;24.730;2023-06-01T02:05:05;16.60;;;11.23;;
5876;SDS011;2964;42.144;24.730;2023-06-01T02:07:32;14.07;;;10.53;;
5876;SDS011;2964;42.144;24.730;2023-06-01T02:10:00;10.90;;;9.77;;
5876;SDS011;2964;42.144;24.730;2023-06-01T02:12:26;13.17;;;11.17;;
5876;SDS011;2964;42.144;24.730;2023-06-01T02:14:53;11.13;;;10.27;;
5876;SDS011;2964;42.144;24.730;2023-06-01T02:17:20;11.30;;;10.33;;
5876;SDS011;2964;42.144;24.730;2023-06-01T02:19:46;11.67;;;10.67;;
5876;SDS011;2964;42.144;24.730;2023-06-01T02:22:14;11.63;;;10.57;;
5876;SDS011;2964;42.144;24.730;2023-06-01T02:24:41;11.97;;;10.90;;
5876;SDS011;2964;42.144;24.730;2023-06-01T02:27:08;11.27;;;10.37;;
5876;SDS011;2964;42.144;24.730;2023-06-01T02:29:34;12.83;;;11.17;;
5876;SDS011;2964;42.144;24.730;2023-06-01T02:32:01;13.90;;;10.40;;
5876;SDS011;2964;42.144;24.730;2023-06-01T02:34:28;15.90;;;11.40;;
5876;SDS011;2964;42.144;24.730;2023-06-01T02:36:55;12.00;;;10.77;;
5876;SDS011;2964;42.144;24.730;2023-06-01T02:39:23;14.60;;;11.17;;
5876;SDS011;2964;42.144;24.730;2023-06-01T02:41:50;11.30;;;10.33;;
5876;SDS011;2964;42.144;24.730;2023-06-01T02:44:16;11.67;;;10.60;;
5876;SDS011;2964;42.144;24.730;2023-06-01T02:46:43;12.17;;;10.97;;
5876;SDS011;2964;42.144;24.730;2023-06-01T02:49:10;12.57;;;11.17;;
5876;SDS011;2964;42.144;24.730;2023-06-01T02:51:36;12.23;;;10.93;;
5876;SDS011;2964;42.144;24.730;2023-06-01T02:54:03;12.47;;;11.13;;
5876;SDS011;2964;42.144;24.730;2023-06-01T02:56:31;11.60;;;10.70;;
5876;SDS011;2964;42.144;24.730;2023-06-01T02:58:58;12.93;;;11.60;;
5876;SDS011;2964;42.144;24.730;2023-06-01T03:01:24;12.67;;;11.47;;
5876;SDS011;2964;42.144;24.730;2023-06-01T03:03:51;12.57;;;11.30;;
5876;SDS011;2964;42.144;24.730;2023-06-01T03:06:18;13.77;;;11.97;;
5876;SDS011;2964;42.144;24.730;2023-06-01T03:08:46;12.80;;;11.37;;
5876;SDS011;2964;42.144;24.730;2023-06-01T03:11:13;14.20;;;12.80;;
5876;SDS011;2964;42.144;24.730;2023-06-01T03:13:41;16.40;;;11.70;;
5876;SDS011;2964;42.144;24.730;2023-06-01T03:16:08;12.60;;;11.43;;
5876;SDS011;2964;42.144;24.730;2023-06-01T03:18:34;12.47;;;11.17;;
5876;SDS011;2964;42.144;24.730;2023-06-01T03:21:02;12.47;;;10.83;;
5876;SDS011;2964;42.144;24.730;2023-06-01T03:23:28;11.40;;;10.27;;
5876;SDS011;2964;42.144;24.730;2023-06-01T03:25:55;11.93;;;10.33;;
5876;SDS011;2964;42.144;24.730;2023-06-01T03:28:22;14.53;;;12.23;;
5876;SDS011;2964;42.144;24.730;2023-06-01T03:30:50;11.77;;;10.73;;
5876;SDS011;2964;42.144;24.730;2023-06-01T03:33:17;12.03;;;10.83;;
5876;SDS011;2964;42.144;24.730;2023-06-01T03:35:43;17.33;;;11.97;;
5876;SDS011;2964;42.144;24.730;2023-06-01T03:38:10;12.70;;;11.37;;
5876;SDS011;2964;42.144;24.730;2023-06-01T03:40:37;12.77;;;11.47;;
5876;SDS011;2964;42.144;24.730;2023-06-01T03:43:03;12.77;;;11.67;;
5876;SDS011;2964;42.144;24.730;2023-06-01T03:45:30;12.40;;;11.20;;
5876;SDS011;2964;42.144;24.730;2023-06-01T03:47:58;10.73;;;9.77;;
5876;SDS011;2964;42.144;24.730;2023-06-01T03:50:25;11.87;;;10.87;;
5876;SDS011;2964;42.144;24.730;2023-06-01T03:52:52;11.80;;;10.73;;
5876;SDS011;2964;42.144;24.730;2023-06-01T03:55:18;11.83;;;10.93;;
5876;SDS011;2964;42.144;24.730;2023-06-01T03:57:45;12.27;;;10.93;;
5876;SDS011;2964;42.144;24.730;2023-06-01T04:00:12;11.80;;;10.70;;
5876;SDS011;2964;42.144;24.730;2023-06-01T04:02:49;13.10;;;10.93;;
5876;SDS011;2964;42.144;24.730;2023-06-01T04:05:19;13.07;;;9.83;;
5876;SDS011;2964;42.144;24.730;2023-06-01T04:07:46;14.57;;;10.70;;
5876;SDS011;2964;42.144;24.730;2023-06-01T04:10:13;12.70;;;11.30;;
5876;SDS011;2964;42.144;24.730;2023-06-01T04:12:41;11.80;;;10.47;;
5876;SDS011;2964;42.144;24.730;2023-06-01T04:15:09;12.63;;;10.33;;
5876;SDS011;2964;42.144;24.730;2023-06-01T04:17:37;11.37;;;10.43;;
5876;SDS011;2964;42.144;24.730;2023-06-01T04:20:04;10.60;;;8.87;;
5876;SDS011;2964;42.144;24.730;2023-06-01T04:22:33;10.33;;;9.33;;
5876;SDS011;2964;42.144;24.730;2023-06-01T04:25:00;10.53;;;8.93;;
5876;SDS011;2964;42.144;24.730;2023-06-01T04:27:26;9.47;;;8.77;;
5876;SDS011;2964;42.144;24.730;2023-06-01T04:29:53;9.33;;;8.40;;
5876;SDS011;2964;42.144;24.730;2023-06-01T04:32:20;9.20;;;8.50;;
5876;SDS011;2964;42.144;24.730;2023-06-01T04:34:47;9.33;;;8.17;;
5876;SDS011;2964;42.144;24.730;2023-06-01T04:37:15;9.63;;;8.70;;
5876;SDS011;2964;42.144;24.730;2023-06-01T04:39:47;10.50;;;9.50;;
5876;SDS011;2964;42.144;24.730;2023-06-01T04:42:15;10.40;;;8.87;;
5876;SDS011;2964;42.144;24.730;2023-06-01T04:44:43;10.57;;;9.23;;
5876;SDS011;2964;42.144;24.730;2023-06-01T04:47:14;13.02;;;9.05;;
5876;SDS011;2964;42.144;24.730;2023-06-01T04:49:42;8.73;;;7.78;;
5876;SDS011;2964;42.144;24.730;2023-06-01T04:52:09;9.85;;;8.80;;
5876;SDS011;2964;42.144;24.730;2023-06-01T04:54:37;9.50;;;8.13;;
5876;SDS011;2964;42.144;24.730;2023-06-01T04:57:05;15.80;;;7.72;;
5876;SDS011;2964;42.144;24.730;2023-06-01T04:59:32;8.75;;;8.00;;
5876;SDS011;2964;42.144;24.730;2023-06-01T05:01:59;8.68;;;8.07;;
5876;SDS011;2964;42.144;24.730;2023-06-01T05:04:26;9.50;;;8.60;;
5876;SDS011;2964;42.144;24.730;2023-06-01T05:06:53;11.77;;;8.48;;
5876;SDS011;2964;42.144;24.730;2023-06-01T05:09:19;16.30;;;8.80;;
5876;SDS011;2964;42.144;24.730;2023-06-01T05:11:46;13.75;;;8.93;;
5876;SDS011;2964;42.144;24.730;2023-06-01T05:14:15;9.50;;;8.88;;
5876;SDS011;2964;42.144;24.730;2023-06-01T05:16:41;9.95;;;9.15;;
5876;SDS011;2964;42.144;24.730;2023-06-01T05:19:08;10.73;;;9.63;;
5876;SDS011;2964;42.144;24.730;2023-06-01T05:21:34;9.35;;;8.60;;
5876;SDS011;2964;42.144;24.730;2023-06-01T05:24:01;8.63;;;7.93;;
5876;SDS011;2964;42.144;24.730;2023-06-01T05:26:28;11.77;;;9.90;;
5876;SDS011;2964;42.144;24.730;2023-06-01T05:28:55;10.68;;;9.80;;
5876;SDS011;2964;42.144;24.730;2023-06-01T05:31:23;11.07;;;9.98;;
5876;SDS011;2964;42.144;24.730;2023-06-01T05:33:50;9.07;;;8.35;;
5876;SDS011;2964;42.144;24.730;2023-06-01T05:36:16;9.05;;;8.55;;
5876;SDS011;2964;42.144;24.730;2023-06-01T05:38:43;9.70;;;8.77;;
5876;SDS011;2964;42.144;24.730;2023-06-01T05:41:10;9.73;;;8.93;;
5876;SDS011;2964;42.144;24.730;2023-06-01T05:43:36;10.23;;;9.32;;
5876;SDS011;2964;42.144;24.730;2023-06-01T05:46:03;11.27;;;8.65;;
5876;SDS011;2964;42.144;24.730;2023-06-01T05:48:33;9.57;;;8.95;;
5876;SDS011;2964;42.144;24.730;2023-06-01T05:50:59;11.82;;;7.68;;
5876;SDS011;2964;42.144;24.730;2023-06-01T05:53:26;11.63;;;8.50;;
5876;SDS011;2964;42.144;24.730;2023-06-01T05:55:52;17.55;;;8.63;;
5876;SDS011;2964;42.144;24.730;2023-06-01T05:58:19;9.43;;;8.50;;
5876;SDS011;2964;42.144;24.730;2023-06-01T06:00:46;9.13;;;8.40;;
5876;SDS011;2964;42.144;24.730;2023-06-01T06:03:13;9.32;;;8.63;;
5876;SDS011;2964;42.144;24.730;2023-06-01T06:05:41;8.48;;;7.72;;
5876;SDS011;2964;42.144;24.730;2023-06-01T06:08:07;8.82;;;8.00;;
5876;SDS011;2964;42.144;24.730;2023-06-01T06:10:35;10.70;;;8.85;;
5876;SDS011;2964;42.144;24.730;2023-06-01T06:13:02;9.27;;;8.45;;
5876;SDS011;2964;42.144;24.730;2023-06-01T06:15:28;8.68;;;7.95;;
5876;SDS011;2964;42.144;24.730;2023-06-01T06:17:55;11.98;;;7.60;;
5876;SDS011;2964;42.144;24.730;2023-06-01T06:20:22;9.25;;;7.22;;
5876;SDS011;2964;42.144;24.730;2023-06-01T06:22:50;7.95;;;7.25;;
5876;SDS011;2964;42.144;24.730;2023-06-01T06:25:18;7.72;;;7.13;;
5876;SDS011;2964;42.144;24.730;2023-06-01T06:27:44;8.38;;;7.45;;
5876;SDS011;2964;42.144;24.730;2023-06-01T06:30:12;7.80;;;7.30;;
5876;SDS011;2964;42.144;24.730;2023-06-01T06:32:39;8.55;;;6.80;;
5876;SDS011;2964;42.144;24.730;2023-06-01T06:35:05;7.60;;;7.00;;
5876;SDS011;2964;42.144;24.730;2023-06-01T06:37:33;7.72;;;6.53;;
5876;SDS011;2964;42.144;24.730;2023-06-01T06:40:01;6.90;;;6.43;;
5876;SDS011;2964;42.144;24.730;2023-06-01T06:42:28;7.22;;;6.72;;
5876;SDS011;2964;42.144;24.730;2023-06-01T06:44:55;7.03;;;6.53;;
5876;SDS011;2964;42.144;24.730;2023-06-01T06:50:25;8.57;;;7.78;;
5876;SDS011;2964;42.144;24.730;2023-06-01T06:52:52;7.72;;;7.22;;
5876;SDS011;2964;42.144;24.730;2023-06-01T07:01:30;7.93;;;6.78;;
5876;SDS011;2964;42.144;24.730;2023-06-01T07:02:49;7.82;;;7.22;;
5876;SDS011;2964;42.144;24.730;2023-06-01T07:05:45;9.80;;;7.82;;
5876;SDS011;2964;42.144;24.730;2023-06-01T07:08:13;7.55;;;7.05;;
5876;SDS011;2964;42.144;24.730;2023-06-01T07:11:01;8.45;;;7.57;;
5876;SDS011;2964;42.144;24.730;2023-06-01T07:13:35;8.13;;;7.57;;
5876;SDS011;2964;42.144;24.730;2023-06-01T07:16:05;6.88;;;6.38;;
5876;SDS011;2964;42.144;24.730;2023-06-01T07:18:32;7.07;;;6.43;;
5876;SDS011;2964;42.144;24.730;2023-06-01T07:21:18;8.27;;;7.53;;
5876;SDS011;2964;42.144;24.730;2023-06-01T07:23:45;7.40;;;7.00;;
5876;SDS011;2964;42.144;24.730;2023-06-01T07:26:13;7.75;;;7.25;;
5876;SDS011;2964;42.144;24.730;2023-06-01T07:28:41;7.82;;;7.20;;
5876;SDS011;2964;42.144;24.730;2023-06-01T07:31:11;7.82;;;7.10;;
5876;SDS011;2964;42.144;24.730;2023-06-01T07:33:47;23.00;;;8.43;;
5876;SDS011;2964;42.144;24.730;2023-06-01T07:36:24;7.30;;;6.80;;
5876;SDS011;2964;42.144;24.730;2023-06-01T07:38:51;7.78;;;7.15;;
5876;SDS011;2964;42.144;24.730;2023-06-01T07:41:18;7.80;;;7.10;;
5876;SDS011;2964;42.144;24.730;2023-06-01T07:43:46;8.45;;;7.68;;
5876;SDS011;2964;42.144;24.730;2023-06-01T07:46:13;10.45;;;7.45;;
5876;SDS011;2964;42.144;24.730;2023-06-01T07:48:39;10.80;;;6.88;;
5876;SDS011;2964;42.144;24.730;2023-06-01T07:51:06;8.07;;;7.57;;
5876;SDS011;2964;42.144;24.730;2023-06-01T07:53:33;7.80;;;7.03;;
5876;SDS011;2964;42.144;24.730;2023-06-01T07:55:59;7.25;;;6.85;;
5876;SDS011;2964;42.144;24.730;2023-06-01T07:58:26;8.02;;;7.47;;
5876;SDS011;2964;42.144;24.730;2023-06-01T08:00:54;7.97;;;7.05;;
5876;SDS011;2964;42.144;24.730;2023-06-01T08:03:21;8.77;;;8.07;;
5876;SDS011;2964;42.144;24.730;2023-06-01T08:05:50;8.45;;;8.05;;
5876;SDS011;2964;42.144;24.730;2023-06-01T08:08:19;9.18;;;8.30;;
5876;SDS011;2964;42.144;24.730;2023-06-01T08:10:46;9.35;;;8.63;;
5876;SDS011;2964;42.144;24.730;2023-06-01T08:13:13;10.60;;;8.98;;
5876;SDS011;2964;42.144;24.730;2023-06-01T08:15:39;10.85;;;8.82;;
5876;SDS011;2964;42.144;24.730;2023-06-01T08:18:08;10.18;;;8.25;;
5876;SDS011;2964;42.144;24.730;2023-06-01T08:20:35;10.13;;;9.10;;
5876;SDS011;2964;42.144;24.730;2023-06-01T08:23:02;10.15;;;9.32;;
5876;SDS011;2964;42.144;24.730;2023-06-01T08:25:29;11.75;;;8.50;;
5876;SDS011;2964;42.144;24.730;2023-06-01T08:27:56;10.35;;;9.55;;
5876;SDS011;2964;42.144;24.730;2023-06-01T08:30:24;10.00;;;9.18;;
5876;SDS011;2964;42.144;24.730;2023-06-01T08:32:51;11.90;;;8.82;;
5876;SDS011;2964;42.144;24.730;2023-06-01T08:35:19;8.85;;;8.23;;
5876;SDS011;2964;42.144;24.730;2023-06-01T08:37:46;11.15;;;8.60;;
5876;SDS011;2964;42.144;24.730;2023-06-01T08:40:13;10.98;;;9.73;;
5876;SDS011;2964;42.144;24.730;2023-06-01T08:42:43;10.15;;;8.15;;
5876;SDS011;2964;42.144;24.730;2023-06-01T08:45:16;9.77;;;8.40;;
5876;SDS011;2964;42.144;24.730;2023-06-01T08:47:43;9.98;;;9.05;;
5876;SDS011;2964;42.144;24.730;2023-06-01T08:50:12;9.07;;;7.95;;
5876;SDS011;2964;42.144;24.730;2023-06-01T08:52:41;10.05;;;8.98;;
5876;SDS011;2964;42.144;24.730;2023-06-01T08:55:11;8.63;;;7.75;;
5876;SDS011;2964;42.144;24.730;2023-06-01T08:57:40;8.90;;;8.38;;
5876;SDS011;2964;42.144;24.730;2023-06-01T09:00:07;9.05;;;8.45;;
5876;SDS011;2964;42.144;24.730;2023-06-01T09:02:34;8.38;;;7.78;;
5876;SDS011;2964;42.144;24.730;2023-06-01T09:05:01;7.13;;;6.68;;
5876;SDS011;2964;42.144;24.730;2023-06-01T09:07:28;9.98;;;9.10;;
5876;SDS011;2964;42.144;24.730;2023-06-01T09:09:57;8.93;;;8.25;;
5876;SDS011;2964;42.144;24.730;2023-06-01T09:12:25;9.25;;;8.65;;
5876;SDS011;2964;42.144;24.730;2023-06-01T09:15:06;9.20;;;8.52;;
5876;SDS011;2964;42.144;24.730;2023-06-01T09:17:34;8.45;;;7.78;;
5876;SDS011;2964;42.144;24.730;2023-06-01T09:20:02;8.50;;;7.75;;
5876;SDS011;2964;42.144;24.730;2023-06-01T09:22:40;8.10;;;7.63;;
5876;SDS011;2964;42.144;24.730;2023-06-01T09:25:09;6.55;;;6.22;;
5876;SDS011;2964;42.144;24.730;2023-06-01T09:27:44;7.80;;;7.10;;
5876;SDS011;2964;42.144;24.730;2023-06-01T09:30:12;6.60;;;6.07;;
5876;SDS011;2964;42.144;24.730;2023-06-01T09:32:40;8.85;;;7.03;;
5876;SDS011;2964;42.144;24.730;2023-06-01T09:35:07;9.27;;;8.48;;
5876;SDS011;2964;42.144;24.730;2023-06-01T09:37:36;8.57;;;7.78;;
5876;SDS011;2964;42.144;24.730;2023-06-01T09:40:16;7.70;;;7.20;;
5876;SDS011;2964;42.144;24.730;2023-06-01T09:42:43;7.45;;;6.82;;
5876;SDS011;2964;42.144;24.730;2023-06-01T09:45:15;7.43;;;6.82;;
5876;SDS011;2964;42.144;24.730;2023-06-01T09:47:43;10.25;;;6.53;;
5876;SDS011;2964;42.144;24.730;2023-06-01T09:50:10;8.13;;;6.68;;
5876;SDS011;2964;42.144;24.730;2023-06-01T09:52:37;6.93;;;6.38;;
5876;SDS011;2964;42.144;24.730;2023-06-01T09:55:07;7.20;;;6.80;;
5876;SDS011;2964;42.144;24.730;2023-06-01T09:57:36;7.13;;;6.72;;
5876;SDS011;2964;42.144;24.730;2023-06-01T10:00:03;6.97;;;6.50;;
5876;SDS011;2964;42.144;24.730;2023-06-01T10:02:31;7.32;;;6.72;;
5876;SDS011;2964;42.144;24.730;2023-06-01T10:04:59;7.57;;;7.18;;
5876;SDS011;2964;42.144;24.730;2023-06-01T10:07:27;7.47;;;6.90;;
5876;SDS011;2964;42.144;24.730;2023-06-01T10:10:05;8.95;;;6.43;;
5876;SDS011;2964;42.144;24.730;2023-06-01T10:12:46;6.93;;;6.32;;
5876;SDS011;2964;42.144;24.730;2023-06-01T10:15:13;7.53;;;7.13;;
5876;SDS011;2964;42.144;24.730;2023-06-01T10:17:40;6.95;;;6.43;;
5876;SDS011;2964;42.144;24.730;2023-06-01T10:20:09;8.25;;;7.47;;
5876;SDS011;2964;42.144;24.730;2023-06-01T10:22:38;6.32;;;5.93;;
5876;SDS011;2964;42.144;24.730;2023-06-01T10:25:07;6.88;;;6.43;;
5876;SDS011;2964;42.144;24.730;2023-06-01T10:27:39;7.70;;;6.90;;
5876;SDS011;2964;42.144;24.730;2023-06-01T10:30:10;6.90;;;6.30;;
5876;SDS011;2964;42.144;24.730;2023-06-01T10:32:45;5.50;;;5.18;;
5876;SDS011;2964;42.144;24.730;2023-06-01T10:38:21;6.35;;;5.88;;
5876;SDS011;2964;42.144;24.730;2023-06-01T10:40:48;7.60;;;6.88;;
5876;SDS011;2964;42.144;24.730;2023-06-01T10:46:16;6.03;;;5.68;;
5876;SDS011;2964;42.144;24.730;2023-06-01T10:49:01;9.48;;;6.00;;
5876;SDS011;2964;42.144;24.730;2023-06-01T10:51:28;7.63;;;7.22;;
5876;SDS011;2964;42.144;24.730;2023-06-01T10:53:56;7.32;;;6.80;;
5876;SDS011;2964;42.144;24.730;2023-06-01T11:02:55;7.57;;;6.32;;
5876;SDS011;2964;42.144;24.730;2023-06-01T11:05:42;7.80;;;7.07;;
5876;SDS011;2964;42.144;24.730;2023-06-01T11:11:15;6.80;;;5.63;;
5876;SDS011;2964;42.144;24.730;2023-06-01T11:13:42;6.55;;;6.25;;
5876;SDS011;2964;42.144;24.730;2023-06-01T11:16:29;7.10;;;6.70;;
5876;SDS011;2964;42.144;24.730;2023-06-01T11:18:58;7.38;;;6.70;;
5876;SDS011;2964;42.144;24.730;2023-06-01T11:21:27;7.68;;;7.13;;
5876;SDS011;2964;42.144;24.730;2023-06-01T11:23:56;7.32;;;6.68;;
5876;SDS011;2964;42.144;24.730;2023-06-01T11:26:28;7.65;;;6.95;;
5876;SDS011;2964;42.144;24.730;2023-06-01T11:29:03;6.40;;;5.65;;
5876;SDS011;2964;42.144;24.730;2023-06-01T11:31:35;6.60;;;6.03;;
5876;SDS011;2964;42.144;24.730;2023-06-01T11:34:08;6.57;;;5.97;;
5876;SDS011;2964;42.144;24.730;2023-06-01T11:36:37;7.57;;;6.93;;
5876;SDS011;2964;42.144;24.730;2023-06-01T11:39:15;7.40;;;6.55;;
5876;SDS011;2964;42.144;24.730;2023-06-01T11:41:45;6.00;;;5.68;;
5876;SDS011;2964;42.144;24.730;2023-06-01T11:44:12;6.55;;;6.05;;
5876;SDS011;2964;42.144;24.730;2023-06-01T11:46:49;7.47;;;6.97;;
5876;SDS011;2964;42.144;24.730;2023-06-01T11:49:18;7.03;;;6.45;;
5876;SDS011;2964;42.144;24.730;2023-06-01T11:51:45;7.22;;;6.45;;
5876;SDS011;2964;42.144;24.730;2023-06-01T11:54:11;6.30;;;5.90;;
5876;SDS011;2964;42.144;24.730;2023-06-01T11:56:38;6.97;;;6.20;;
5876;SDS011;2964;42.144;24.730;2023-06-01T11:59:05;6.80;;;6.35;;
5876;SDS011;2964;42.144;24.730;2023-06-01T12:01:33;5.90;;;5.60;;
5876;SDS011;2964;42.144;24.730;2023-06-01T12:04:02;6.30;;;5.78;;
5876;SDS011;2964;42.144;24.730;2023-06-01T12:06:30;7.40;;;6.88;;
5876;SDS011;2964;42.144;24.730;2023-06-01T12:08:57;7.20;;;6.63;;
5876;SDS011;2964;42.144;24.730;2023-06-01T12:11:25;6.93;;;6.50;;
5876;SDS011;2964;42.144;24.730;2023-06-01T12:13:53;7.55;;;6.13;;
5876;SDS011;2964;42.144;24.730;2023-06-01T12:16:21;7.05;;;6.55;;
5876;SDS011;2964;42.144;24.730;2023-06-01T12:18:47;7.40;;;6.68;;
5876;SDS011;2964;42.144;24.730;2023-06-01T12:21:14;9.20;;;8.63;;
5876;SDS011;2964;42.144;24.730;2023-06-01T12:23:43;8.25;;;7.65;;
5876;SDS011;2964;42.144;24.730;2023-06-01T12:26:14;8.05;;;7.45;;
5876;SDS011;2964;42.144;24.730;2023-06-01T12:28:48;7.10;;;6.53;;
5876;SDS011;2964;42.144;24.730;2023-06-01T12:31:18;6.93;;;6.38;;
5876;SDS011;2964;42.144;24.730;2023-06-01T12:33:45;6.95;;;6.53;;
5876;SDS011;2964;42.144;24.730;2023-06-01T12:36:28;6.40;;;6.10;;
5876;SDS011;2964;42.144;24.730;2023-06-01T12:38:58;8.48;;;7.70;;
5876;SDS011;2964;42.144;24.730;2023-06-01T12:41:25;7.28;;;6.90;;
5876;SDS011;2964;42.144;24.730;2023-06-01T12:43:54;6.57;;;6.07;;
5876;SDS011;2964;42.144;24.730;2023-06-01T12:46:21;7.05;;;6.38;;
5876;SDS011;2964;42.144;24.730;2023-06-01T12:48:48;7.43;;;6.82;;
5876;SDS011;2964;42.144;24.730;2023-06-01T12:51:18;7.05;;;6.65;;
5876;SDS011;2964;42.144;24.730;2023-06-01T12:53:45;7.68;;;7.20;;
5876;SDS011;2964;42.144;24.730;2023-06-01T12:56:13;8.13;;;6.68;;
5876;SDS011;2964;42.144;24.730;2023-06-01T12:58:40;7.03;;;6.53;;
5876;SDS011;2964;42.144;24.730;2023-06-01T13:01:07;6.82;;;6.32;;
5876;SDS011;2964;42.144;24.730;2023-06-01T13:03:33;7.53;;;6.78;;
5876;SDS011;2964;42.144;24.730;2023-06-01T13:06:00;6.47;;;5.97;;
5876;SDS011;2964;42.144;24.730;2023-06-01T13:08:27;6.80;;;6.45;;
5876;SDS011;2964;42.144;24.730;2023-06-01T13:10:53;7.43;;;6.40;;
5876;SDS011;2964;42.144;24.730;2023-06-01T13:13:21;6.80;;;6.20;;
5876;SDS011;2964;42.144;24.730;2023-06-01T13:15:48;7.20;;;6.53;;
5876;SDS011;2964;42.144;24.730;2023-06-01T13:18:15;7.43;;;6.90;;
5876;SDS011;2964;42.144;24.730;2023-06-01T13:20:42;9.68;;;6.78;;
5876;SDS011;2964;42.144;24.730;2023-06-01T13:23:08;7.32;;;6.72;;
5876;SDS011;2964;42.144;24.730;2023-06-01T13:25:36;7.82;;;7.15;;
5876;SDS011;2964;42.144;24.730;2023-06-01T13:28:03;7.32;;;6.65;;
5876;SDS011;2964;42.144;24.730;2023-06-01T13:30:31;6.72;;;6.22;;
5876;SDS011;2964;42.144;24.730;2023-06-01T13:32:59;8.07;;;7.40;;
5876;SDS011;2964;42.144;24.730;2023-06-01T13:35:26;7.13;;;6.82;;
5876;SDS011;2964;42.144;24.730;2023-06-01T13:37:52;6.57;;;6.25;;
5876;SDS011;2964;42.144;24.730;2023-06-01T13:40:19;10.02;;;6.80;;
5876;SDS011;2964;42.144;24.730;2023-06-01T13:42:48;7.72;;;7.00;;
5876;SDS011;2964;42.144;24.730;2023-06-01T13:45:15;8.10;;;7.38;;
5876;SDS011;2964;42.144;24.730;2023-06-01T13:47:43;6.57;;;6.18;;
5876;SDS011;2964;42.144;24.730;2023-06-01T13:50:10;7.35;;;6.03;;
5876;SDS011;2964;42.144;24.730;2023-06-01T13:52:38;8.02;;;7.15;;
5876;SDS011;2964;42.144;24.730;2023-06-01T13:55:05;7.18;;;6.80;;
5876;SDS011;2964;42.144;24.730;2023-06-01T13:57:32;8.40;;;6.03;;
5876;SDS011;2964;42.144;24.730;2023-06-01T13:59:59;6.57;;;6.22;;
5876;SDS011;2964;42.144;24.730;2023-06-01T14:02:26;7.45;;;6.82;;
5876;SDS011;2964;42.144;24.730;2023-06-01T14:04:54;7.07;;;6.47;;
5876;SDS011;2964;42.144;24.730;2023-06-01T14:07:21;6.63;;;6.22;;
5876;SDS011;2964;42.144;24.730;2023-06-01T14:09:47;7.38;;;6.88;;
5876;SDS011;2964;42.144;24.730;2023-06-01T14:12:14;7.78;;;7.22;;
5876;SDS011;2964;42.144;24.730;2023-06-01T14:14:41;7.00;;;6.55;;
5876;SDS011;2964;42.144;24.730;2023-06-01T14:17:07;7.88;;;7.47;;
5876;SDS011;2964;42.144;24.730;2023-06-01T14:19:34;7.68;;;7.22;;
5876;SDS011;2964;42.144;24.730;2023-06-01T14:22:02;13.10;;;6.90;;
5876;SDS011;2964;42.144;24.730;2023-06-01T14:24:29;6.95;;;6.55;;
5876;SDS011;2964;42.144;24.730;2023-06-01T14:26:56;7.93;;;7.13;;
5876;SDS011;2964;42.144;24.730;2023-06-01T14:29:22;7.20;;;6.70;;
5876;SDS011;2964;42.144;24.730;2023-06-01T14:31:49;6.72;;;6.30;;
5876;SDS011;2964;42.144;24.730;2023-06-01T14:34:15;6.57;;;6.18;;
5876;SDS011;2964;42.144;24.730;2023-06-01T14:36:42;7.70;;;7.00;;
5876;SDS011;2964;42.144;24.730;2023-06-01T14:39:10;7.22;;;6.72;;
5876;SDS011;2964;42.144;24.730;2023-06-01T14:41:37;7.65;;;7.25;;
5876;SDS011;2964;42.144;24.730;2023-06-01T14:44:04;7.35;;;6.78;;
5876;SDS011;2964;42.144;24.730;2023-06-01T14:46:30;7.28;;;6.88;;
5876;SDS011;2964;42.144;24.730;2023-06-01T14:48:57;7.38;;;6.72;;
5876;SDS011;2964;42.144;24.730;2023-06-01T14:51:25;7.07;;;6.43;;
5876;SDS011;2964;42.144;24.730;2023-06-01T14:53:53;6.95;;;6.38;;
5876;SDS011;2964;42.144;24.730;2023-06-01T14:56:21;6.90;;;6.50;;
5876;SDS011;2964;42.144;24.730;2023-06-01T14:58:47;7.68;;;6.95;;
5876;SDS011;2964;42.144;24.730;2023-06-01T15:01:14;7.40;;;6.88;;
5876;SDS011;2964;42.144;24.730;2023-06-01T15:03:41;7.35;;;6.75;;
5876;SDS011;2964;42.144;24.730;2023-06-01T15:06:08;7.07;;;6.68;;
5876;SDS011;2964;42.144;24.730;2023-06-01T15:08:35;8.32;;;7.80;;
5876;SDS011;2964;42.144;24.730;2023-06-01T15:11:01;6.75;;;6.30;;
5876;SDS011;2964;42.144;24.730;2023-06-01T15:13:29;6.55;;;6.05;;
5876;SDS011;2964;42.144;24.730;2023-06-01T15:15:56;6.75;;;6.35;;
5876;SDS011;2964;42.144;24.730;2023-06-01T15:18:23;6.60;;;6.20;;
5876;SDS011;2964;42.144;24.730;2023-06-01T15:20:49;7.15;;;6.57;;
5876;SDS011;2964;42.144;24.730;2023-06-01T15:23:16;6.78;;;6.28;;